sensor_id;sensor_type;location;lat;lon;timestamp;pressure;altitude;pressure_sealevel;temperature;humidity
23164;BME280;31429;42.674;23.350;2023-01-15T00:00:44;95218.59;;;4.30;100.00
23164;BME280;31429;42.674;23.350;2023-01-15T00:01:44;95219.38;;;4.36;100.00
23164;BME280;31429;42.674;23.350;2023-01-15T00:02:45;95211.00;;;4.30;100.00
23164;BME280;31429;42.674;23.350;2023-01-15T00:03:46;95216.03;;;4.33;100.00
23164;BME280;31429;42.674;23.350;2023-01-15T00:04:49;95219.38;;;4.36;100.00
23164;BME280;31429;42.674;23.350;2023-01-15T00:05:50;95213.47;;;4.34;100.00
23164;BME280;31429;42.674;23.350;2023-01-15T00:06:50;95218.53;;;4.34;100.00
23164;BME280;31429;42.674;23.350;2023-01-15T00:07:51;95217.72;;;4.32;100.00
23164;BME280;31429;42.674;23.350;2023-01-15T00:08:53;95216.91;;;4.30;100.00
23164;BME280;31429;42.674;23.350;2023-01-15T00:09:54;95210.16;;;4.29;100.00
23164;BME280;31429;42.674;23.350;2023-01-15T00:10:56;95203.38;;;4.33;100.00
23164;BME280;31429;42.674;23.350;2023-01-15T00:11:57;95216.88;;;4.33;100.00
23164;BME280;31429;42.674;23.350;2023-01-15T00:12:57;95203.34;;;4.36;100.00
23164;BME280;31429;42.674;23.350;2023-01-15T00:13:58;95210.00;;;4.53;100.00
23164;BME280;31429;42.674;23.350;2023-01-15T00:14:59;95211.72;;;4.44;100.00
23164;BME280;31429;42.674;23.350;2023-01-15T00:16:03;95206.75;;;4.36;100.00
23164;BME280;31429;42.674;23.350;2023-01-15T00:17:04;95210.91;;;4.40;100.00
23164;BME280;31429;42.674;23.350;2023-01-15T00:18:04;95213.44;;;4.40;100.00
23164;BME280;31429;42.674;23.350;2023-01-15T00:19:05;95207.56;;;4.40;100.00
23164;BME280;31429;42.674;23.350;2023-01-15T00:20:10;95201.69;;;4.33;100.00
23164;BME280;31429;42.674;23.350;2023-01-15T00:21:11;95209.28;;;4.32;100.00
23164;BME280;31429;42.674;23.350;2023-01-15T00:22:13;95209.25;;;4.35;100.00
23164;BME280;31429;42.674;23.350;2023-01-15T00:23:13;95214.34;;;4.36;100.00
23164;BME280;31429;42.674;23.350;2023-01-15T00:24:34;95216.88;;;4.33;100.00
23164;BME280;31429;42.674;23.350;2023-01-15T00:25:56;95216.88;;;4.29;100.00
23164;BME280;31429;42.674;23.350;2023-01-15T00:27:15;95221.91;;;4.36;100.00
23164;BME280;31429;42.674;23.350;2023-01-15T00:28:34;95215.97;;;4.40;100.00
23164;BME280;31429;42.674;23.350;2023-01-15T00:29:34;95219.31;;;4.47;100.00
23164;BME280;31429;42.674;23.350;2023-01-15T00:30:39;95221.72;;;4.63;100.00
23164;BME280;31429;42.674;23.350;2023-01-15T00:31:40;95221.81;;;4.48;100.00
23164;BME280;31429;42.674;23.350;2023-01-15T00:32:41;95221.78;;;4.54;100.00
23164;BME280;31429;42.674;23.350;2023-01-15T00:33:42;95216.78;;;4.47;100.00
23164;BME280;31429;42.674;23.350;2023-01-15T00:34:43;95226.09;;;4.45;100.00
23164;BME280;31429;42.674;23.350;2023-01-15T00:35:44;95225.25;;;4.41;100.00
23164;BME280;31429;42.674;23.350;2023-01-15T00:36:44;95222.75;;;4.38;100.00
23164;BME280;31429;42.674;23.350;2023-01-15T00:37:45;95224.44;;;4.35;100.00
23164;BME280;31429;42.674;23.350;2023-01-15T00:38:45;95218.56;;;4.33;100.00
23164;BME280;31429;42.674;23.350;2023-01-15T00:39:46;95213.53;;;4.31;100.00
23164;BME280;31429;42.674;23.350;2023-01-15T00:40:47;95214.34;;;4.29;100.00
23164;BME280;31429;42.674;23.350;2023-01-15T00:41:54;95216.91;;;4.30;100.00
23164;BME280;31429;42.674;23.350;2023-01-15T00:42:54;95221.06;;;4.36;100.00
23164;BME280;31429;42.674;23.350;2023-01-15T00:43:55;95216.06;;;4.28;100.00
23164;BME280;31429;42.674;23.350;2023-01-15T00:44:56;95215.22;;;4.31;100.00
23164;BME280;31429;42.674;23.350;2023-01-15T00:45:57;95213.53;;;4.28;100.00
23164;BME280;31429;42.674;23.350;2023-01-15T00:46:57;95214.38;;;4.26;100.00
23164;BME280;31429;42.674;23.350;2023-01-15T00:47:58;95204.28;;;4.21;100.00
23164;BME280;31429;42.674;23.350;2023-01-15T00:48:59;95214.34;;;4.29;100.00
23164;BME280;31429;42.674;23.350;2023-01-15T00:49:59;95204.28;;;4.21;100.00
23164;BME280;31429;42.674;23.350;2023-01-15T00:51:00;95206.78;;;4.27;100.00
23164;BME280;31429;42.674;23.350;2023-01-15T00:52:01;95208.50;;;4.24;100.00
23164;BME280;31429;42.674;23.350;2023-01-15T00:53:01;95200.91;;;4.28;100.00
23164;BME280;31429;42.674;23.350;2023-01-15T00:54:02;95205.09;;;4.26;100.00
23164;BME280;31429;42.674;23.350;2023-01-15T00:55:05;95205.13;;;4.20;100.00
23164;BME280;31429;42.674;23.350;2023-01-15T00:56:06;95200.13;;;4.17;100.00
23164;BME280;31429;42.674;23.350;2023-01-15T00:57:08;95199.25;;;4.20;100.00
23164;BME280;31429;42.674;23.350;2023-01-15T00:58:10;95198.41;;;4.19;100.00
23164;BME280;31429;42.674;23.350;2023-01-15T00:59:11;95208.53;;;4.22;100.00
23164;BME280;31429;42.674;23.350;2023-01-15T01:00:13;95208.53;;;4.22;100.00
23164;BME280;31429;42.674;23.350;2023-01-15T01:01:14;95200.03;;;4.28;100.00
23164;BME280;31429;42.674;23.350;2023-01-15T01:02:15;95204.25;;;4.29;100.00
23164;BME280;31429;42.674;23.350;2023-01-15T01:03:15;95203.41;;;4.30;100.00
23164;BME280;31429;42.674;23.350;2023-01-15T01:04:16;95210.09;;;4.35;100.00
23164;BME280;31429;42.674;23.350;2023-01-15T01:05:16;95213.47;;;4.39;100.00
23164;BME280;31429;42.674;23.350;2023-01-15T01:06:18;95211.78;;;4.39;100.00
23164;BME280;31429;42.674;23.350;2023-01-15T01:07:19;95207.56;;;4.38;100.00
23164;BME280;31429;42.674;23.350;2023-01-15T01:08:19;95213.47;;;4.39;100.00
23164;BME280;31429;42.674;23.350;2023-01-15T01:09:20;95210.09;;;4.40;100.00
23164;BME280;31429;42.674;23.350;2023-01-15T01:10:21;95209.22;;;4.44;100.00
23164;BME280;31429;42.674;23.350;2023-01-15T01:11:24;95204.94;;;4.53;100.00
23164;BME280;31429;42.674;23.350;2023-01-15T01:12:27;95209.22;;;4.44;100.00
23164;BME280;31429;42.674;23.350;2023-01-15T01:13:28;95207.47;;;4.49;100.00
23164;BME280;31429;42.674;23.350;2023-01-15T01:14:28;95202.44;;;4.43;100.00
23164;BME280;31429;42.674;23.350;2023-01-15T01:15:29;95211.69;;;4.50;100.00
23164;BME280;31429;42.674;23.350;2023-01-15T01:16:34;95209.94;;;4.59;100.00
23164;BME280;31429;42.674;23.350;2023-01-15T01:17:36;95204.91;;;4.56;100.00
23164;BME280;31429;42.674;23.350;2023-01-15T01:18:37;95206.72;;;4.39;100.00
23164;BME280;31429;42.674;23.350;2023-01-15T01:19:38;95203.34;;;4.34;100.00
23164;BME280;31429;42.674;23.350;2023-01-15T01:20:38;95210.84;;;4.49;100.00
23164;BME280;31429;42.674;23.350;2023-01-15T01:21:40;95206.69;;;4.42;100.00
23164;BME280;31429;42.674;23.350;2023-01-15T01:22:42;95203.28;;;4.43;100.00
23164;BME280;31429;42.674;23.350;2023-01-15T01:23:43;95203.34;;;4.39;100.00
23164;BME280;31429;42.674;23.350;2023-01-15T01:24:44;95205.88;;;4.34;100.00
23164;BME280;31429;42.674;23.350;2023-01-15T01:25:45;95207.50;;;4.47;100.00
23164;BME280;31429;42.674;23.350;2023-01-15T01:26:46;95206.63;;;4.48;100.00
23164;BME280;31429;42.674;23.350;2023-01-15T01:27:48;95204.91;;;4.52;100.00
23164;BME280;31429;42.674;23.350;2023-01-15T01:28:49;95207.47;;;4.49;100.00
23164;BME280;31429;42.674;23.350;2023-01-15T01:29:50;95204.16;;;4.41;100.00
23164;BME280;31429;42.674;23.350;2023-01-15T01:30:51;95205.03;;;4.35;100.00
23164;BME280;31429;42.674;23.350;2023-01-15T01:31:51;95207.47;;;4.49;100.00
23164;BME280;31429;42.674;23.350;2023-01-15T01:32:52;95199.09;;;4.45;100.00
23164;BME280;31429;42.674;23.350;2023-01-15T01:33:54;95201.56;;;4.48;100.00
23164;BME280;31429;42.674;23.350;2023-01-15T01:34:55;95199.03;;;4.48;100.00
23164;BME280;31429;42.674;23.350;2023-01-15T01:35:56;95204.13;;;4.47;100.00
23164;BME280;31429;42.674;23.350;2023-01-15T01:36:57;95204.97;;;4.47;100.00
23164;BME280;31429;42.674;23.350;2023-01-15T01:37:58;95189.78;;;4.47;100.00
23164;BME280;31429;42.674;23.350;2023-01-15T01:38:58;95195.72;;;4.45;100.00
23164;BME280;31429;42.674;23.350;2023-01-15T01:39:59;95199.84;;;4.55;100.00
23164;BME280;31429;42.674;23.350;2023-01-15T01:41:00;95196.47;;;4.54;100.00
23164;BME280;31429;42.674;23.350;2023-01-15T01:42:00;95193.94;;;4.51;100.00
23164;BME280;31429;42.674;23.350;2023-01-15T01:43:02;95199.06;;;4.44;100.00
23164;BME280;31429;42.674;23.350;2023-01-15T01:44:05;95201.56;;;4.48;100.00
23164;BME280;31429;42.674;23.350;2023-01-15T01:45:21;95198.09;;;4.61;100.00
23164;BME280;31429;42.674;23.350;2023-01-15T01:46:25;95199.81;;;4.62;100.00
23164;BME280;31429;42.674;23.350;2023-01-15T01:47:28;95204.03;;;4.57;100.00
23164;BME280;31429;42.674;23.350;2023-01-15T01:48:32;95203.28;;;4.46;100.00
23164;BME280;31429;42.674;23.350;2023-01-15T01:49:34;95203.25;;;4.49;100.00
23164;BME280;31429;42.674;23.350;2023-01-15T01:50:36;95200.72;;;4.54;100.00
23164;BME280;31429;42.674;23.350;2023-01-15T01:51:40;95195.69;;;4.46;100.00
23164;BME280;31429;42.674;23.350;2023-01-15T01:52:44;95194.91;;;4.38;100.00
23164;BME280;31429;42.674;23.350;2023-01-15T01:53:46;95190.66;;;4.45;100.00
23164;BME280;31429;42.674;23.350;2023-01-15T01:54:48;95194.03;;;4.44;100.00
23164;BME280;31429;42.674;23.350;2023-01-15T01:55:49;95199.91;;;4.47;100.00
23164;BME280;31429;42.674;23.350;2023-01-15T01:56:51;95194.81;;;4.53;100.00
23164;BME280;31429;42.674;23.350;2023-01-15T01:57:53;95196.50;;;4.48;100.00
23164;BME280;31429;42.674;23.350;2023-01-15T01:58:57;95186.28;;;4.60;100.00
23164;BME280;31429;42.674;23.350;2023-01-15T01:59:58;95195.66;;;4.51;100.00
23164;BME280;31429;42.674;23.350;2023-01-15T02:01:00;95198.22;;;4.43;100.00
23164;BME280;31429;42.674;23.350;2023-01-15T02:02:02;95193.00;;;4.63;100.00
23164;BME280;31429;42.674;23.350;2023-01-15T02:03:04;95190.63;;;4.48;100.00
23164;BME280;31429;42.674;23.350;2023-01-15T02:04:07;95188.13;;;4.40;100.00
23164;BME280;31429;42.674;23.350;2023-01-15T02:05:10;95193.16;;;4.46;100.00
23164;BME280;31429;42.674;23.350;2023-01-15T02:06:14;95181.41;;;4.38;100.00
23164;BME280;31429;42.674;23.350;2023-01-15T02:07:15;95194.09;;;4.36;100.00
23164;BME280;31429;42.674;23.350;2023-01-15T02:08:16;95189.88;;;4.32;100.00
23164;BME280;31429;42.674;23.350;2023-01-15T02:09:16;95186.50;;;4.33;100.00
23164;BME280;31429;42.674;23.350;2023-01-15T02:10:17;95188.22;;;4.31;100.00
23164;BME280;31429;42.674;23.350;2023-01-15T02:11:20;95189.03;;;4.36;100.00
23164;BME280;31429;42.674;23.350;2023-01-15T02:12:24;95184.03;;;4.27;100.00
23164;BME280;31429;42.674;23.350;2023-01-15T02:13:32;95188.25;;;4.24;100.00
23164;BME280;31429;42.674;23.350;2023-01-15T02:14:39;95180.66;;;4.25;100.00
23164;BME280;31429;42.674;23.350;2023-01-15T02:15:45;95186.56;;;4.24;100.00
23164;BME280;31429;42.674;23.350;2023-01-15T02:16:52;95181.47;;;4.29;100.00
23164;BME280;31429;42.674;23.350;2023-01-15T02:18:01;95184.00;;;4.26;100.00
23164;BME280;31429;42.674;23.350;2023-01-15T02:19:26;95186.53;;;4.30;100.00
23164;BME280;31429;42.674;23.350;2023-01-15T02:20:32;95184.81;;;4.32;100.00
23164;BME280;31429;42.674;23.350;2023-01-15T02:21:42;95179.75;;;4.35;100.00
23164;BME280;31429;42.674;23.350;2023-01-15T02:22:56;95179.75;;;4.32;100.00
23164;BME280;31429;42.674;23.350;2023-01-15T02:24:09;95180.63;;;4.31;100.00
23164;BME280;31429;42.674;23.350;2023-01-15T02:25:18;95181.38;;;4.42;100.00
23164;BME280;31429;42.674;23.350;2023-01-15T02:26:44;95176.09;;;4.70;100.00
23164;BME280;31429;42.674;23.350;2023-01-15T02:27:54;95180.88;;;4.97;100.00
23164;BME280;31429;42.674;23.350;2023-01-15T02:28:59;95179.19;;;5.02;100.00
23164;BME280;31429;42.674;23.350;2023-01-15T02:30:05;95186.81;;;4.99;100.00
23164;BME280;31429;42.674;23.350;2023-01-15T02:31:11;95182.59;;;4.95;100.00
23164;BME280;31429;42.674;23.350;2023-01-15T02:32:17;95184.25;;;5.00;100.00
23164;BME280;31429;42.674;23.350;2023-01-15T02:33:24;95179.22;;;4.99;100.00
23164;BME280;31429;42.674;23.350;2023-01-15T02:34:28;95180.75;;;5.12;100.00
23164;BME280;31429;42.674;23.350;2023-01-15T02:35:35;95180.88;;;5.01;100.00
23164;BME280;31429;42.674;23.350;2023-01-15T02:36:46;95175.75;;;5.07;100.00
23164;BME280;31429;42.674;23.350;2023-01-15T02:37:50;95175.69;;;5.13;100.00
23164;BME280;31429;42.674;23.350;2023-01-15T02:38:55;95179.81;;;5.20;100.00
23164;BME280;31429;42.674;23.350;2023-01-15T02:39:58;95178.91;;;5.26;100.00
23164;BME280;31429;42.674;23.350;2023-01-15T02:41:01;95180.91;;;4.94;100.00
23164;BME280;31429;42.674;23.350;2023-01-15T02:42:07;95181.09;;;4.79;100.00
23164;BME280;31429;42.674;23.350;2023-01-15T02:43:12;95182.06;;;4.61;100.00
23164;BME280;31429;42.674;23.350;2023-01-15T02:44:16;95177.09;;;4.53;100.00
23164;BME280;31429;42.674;23.350;2023-01-15T02:45:22;95177.13;;;4.43;100.00
23164;BME280;31429;42.674;23.350;2023-01-15T02:46:28;95171.91;;;4.64;100.00
23164;BME280;31429;42.674;23.350;2023-01-15T02:47:33;95173.63;;;4.62;100.00
23164;BME280;31429;42.674;23.350;2023-01-15T02:48:37;95174.53;;;4.56;100.00
23164;BME280;31429;42.674;23.350;2023-01-15T02:49:39;95167.69;;;4.68;100.00
23164;BME280;31429;42.674;23.350;2023-01-15T02:50:44;95175.31;;;4.61;100.00
23164;BME280;31429;42.674;23.350;2023-01-15T02:51:49;95173.69;;;4.56;100.00
23164;BME280;31429;42.674;23.350;2023-01-15T02:52:54;95169.47;;;4.52;100.00
23164;BME280;31429;42.674;23.350;2023-01-15T02:54:00;95172.84;;;4.55;100.00
23164;BME280;31429;42.674;23.350;2023-01-15T02:55:07;95174.31;;;4.78;100.00
23164;BME280;31429;42.674;23.350;2023-01-15T02:56:12;95168.41;;;4.79;100.00
23164;BME280;31429;42.674;23.350;2023-01-15T02:57:17;95174.41;;;4.69;100.00
23164;BME280;31429;42.674;23.350;2023-01-15T02:58:23;95178.53;;;4.80;100.00
23164;BME280;31429;42.674;23.350;2023-01-15T02:59:28;95175.78;;;5.03;100.00
23164;BME280;31429;42.674;23.350;2023-01-15T03:00:34;95174.06;;;5.08;100.00
23164;BME280;31429;42.674;23.350;2023-01-15T03:01:41;95172.50;;;4.92;100.00
23164;BME280;31429;42.674;23.350;2023-01-15T03:02:46;95177.59;;;4.89;100.00
23164;BME280;31429;42.674;23.350;2023-01-15T03:03:55;95174.94;;;5.04;100.00
23164;BME280;31429;42.674;23.350;2023-01-15T03:05:01;95178.22;;;5.13;100.00
23164;BME280;31429;42.674;23.350;2023-01-15T03:06:09;95181.66;;;5.08;100.00
23164;BME280;31429;42.674;23.350;2023-01-15T03:07:15;95179.84;;;5.19;100.00
23164;BME280;31429;42.674;23.350;2023-01-15T03:08:18;95179.94;;;5.10;100.00
23164;BME280;31429;42.674;23.350;2023-01-15T03:09:19;95177.59;;;4.90;100.00
23164;BME280;31429;42.674;23.350;2023-01-15T03:10:21;95180.19;;;4.83;100.00
23164;BME280;31429;42.674;23.350;2023-01-15T03:11:27;95187.84;;;4.78;100.00
23164;BME280;31429;42.674;23.350;2023-01-15T03:12:40;95182.75;;;4.80;100.00
23164;BME280;31429;42.674;23.350;2023-01-15T03:14:04;95180.88;;;5.00;100.00
23164;BME280;31429;42.674;23.350;2023-01-15T03:15:09;95179.03;;;5.14;100.00
23164;BME280;31429;42.674;23.350;2023-01-15T03:16:15;95181.56;;;5.14;100.00
23164;BME280;31429;42.674;23.350;2023-01-15T03:17:38;95182.41;;;5.16;100.00
23164;BME280;31429;42.674;23.350;2023-01-15T03:18:44;95184.25;;;5.02;100.00
23164;BME280;31429;42.674;23.350;2023-01-15T03:19:49;95190.25;;;4.92;100.00
23164;BME280;31429;42.674;23.350;2023-01-15T03:20:59;95189.66;;;4.64;100.00
23164;BME280;31429;42.674;23.350;2023-01-15T03:22:07;95188.09;;;4.48;100.00
23164;BME280;31429;42.674;23.350;2023-01-15T03:23:10;95184.78;;;4.35;100.00
23164;BME280;31429;42.674;23.350;2023-01-15T03:24:12;95189.06;;;4.27;100.00
23164;BME280;31429;42.674;23.350;2023-01-15T03:25:18;95182.31;;;4.26;100.00
23164;BME280;31429;42.674;23.350;2023-01-15T03:26:20;95185.72;;;4.28;100.00
23164;BME280;31429;42.674;23.350;2023-01-15T03:27:21;95178.88;;;4.35;100.00
23164;BME280;31429;42.674;23.350;2023-01-15T03:28:26;95177.13;;;4.43;100.00
23164;BME280;31429;42.674;23.350;2023-01-15T03:29:31;95180.47;;;4.51;100.00
23164;BME280;31429;42.674;23.350;2023-01-15T03:30:33;95176.13;;;4.68;100.00
23164;BME280;31429;42.674;23.350;2023-01-15T03:31:34;95168.44;;;4.74;100.00
23164;BME280;31429;42.674;23.350;2023-01-15T03:32:36;95170.03;;;4.87;100.00
23164;BME280;31429;42.674;23.350;2023-01-15T03:33:37;95176.69;;;4.94;100.00
23164;BME280;31429;42.674;23.350;2023-01-15T03:34:42;95175.75;;;5.06;100.00
23164;BME280;31429;42.674;23.350;2023-01-15T03:35:46;95178.34;;;5.01;100.00
23164;BME280;31429;42.674;23.350;2023-01-15T03:36:48;95177.50;;;4.98;100.00
23164;BME280;31429;42.674;23.350;2023-01-15T03:37:48;95176.72;;;4.93;100.00
23164;BME280;31429;42.674;23.350;2023-01-15T03:38:49;95180.97;;;4.91;100.00
23164;BME280;31429;42.674;23.350;2023-01-15T03:39:51;95182.59;;;4.98;100.00
23164;BME280;31429;42.674;23.350;2023-01-15T03:40:58;95187.69;;;4.96;100.00
23164;BME280;31429;42.674;23.350;2023-01-15T03:42:13;95179.22;;;4.99;100.00
23164;BME280;31429;42.674;23.350;2023-01-15T03:43:19;95175.84;;;4.94;100.00
23164;BME280;31429;42.674;23.350;2023-01-15T03:44:46;95189.34;;;4.97;100.00
23164;BME280;31429;42.674;23.350;2023-01-15T03:45:51;95185.00;;;5.08;100.00
23164;BME280;31429;42.674;23.350;2023-01-15T03:47:02;95190.03;;;5.13;100.00
23164;BME280;31429;42.674;23.350;2023-01-15T03:48:10;95189.22;;;5.09;100.00
23164;BME280;31429;42.674;23.350;2023-01-15T03:49:20;95191.81;;;5.03;100.00
23164;BME280;31429;42.674;23.350;2023-01-15T03:50:27;95190.94;;;5.06;100.00
23164;BME280;31429;42.674;23.350;2023-01-15T03:51:37;95197.13;;;4.79;100.00
23164;BME280;31429;42.674;23.350;2023-01-15T03:52:44;95195.63;;;4.55;100.00
23164;BME280;31429;42.674;23.350;2023-01-15T03:53:48;95192.28;;;4.50;100.00
23164;BME280;31429;42.674;23.350;2023-01-15T03:54:52;95194.91;;;4.40;100.00
23164;BME280;31429;42.674;23.350;2023-01-15T03:56:00;95187.31;;;4.35;100.00
23164;BME280;31429;42.674;23.350;2023-01-15T03:57:07;95191.44;;;4.48;100.00
23164;BME280;31429;42.674;23.350;2023-01-15T03:58:16;95188.75;;;4.70;100.00
23164;BME280;31429;42.674;23.350;2023-01-15T03:59:21;95187.00;;;4.78;100.00
23164;BME280;31429;42.674;23.350;2023-01-15T04:00:26;95188.63;;;4.85;100.00
23164;BME280;31429;42.674;23.350;2023-01-15T04:01:31;95178.41;;;4.92;100.00
23164;BME280;31429;42.674;23.350;2023-01-15T04:02:33;95183.44;;;4.98;100.00
23164;BME280;31429;42.674;23.350;2023-01-15T04:03:36;95178.34;;;5.00;100.00
23164;BME280;31429;42.674;23.350;2023-01-15T04:04:37;95183.44;;;4.94;100.00
23164;BME280;31429;42.674;23.350;2023-01-15T04:05:39;95184.28;;;4.97;100.00
23164;BME280;31429;42.674;23.350;2023-01-15T04:06:42;95185.94;;;5.01;100.00
23164;BME280;31429;42.674;23.350;2023-01-15T04:07:45;95181.66;;;5.08;100.00
23164;BME280;31429;42.674;23.350;2023-01-15T04:08:46;95183.47;;;4.92;100.00
23164;BME280;31429;42.674;23.350;2023-01-15T04:09:47;95183.75;;;4.65;100.00
23164;BME280;31429;42.674;23.350;2023-01-15T04:10:52;95175.41;;;4.49;100.00
23164;BME280;31429;42.674;23.350;2023-01-15T04:11:57;95173.00;;;4.36;100.00
23164;BME280;31429;42.674;23.350;2023-01-15T04:12:58;95182.22;;;4.44;100.00
23164;BME280;31429;42.674;23.350;2023-01-15T04:13:58;95188.03;;;4.55;100.00
23164;BME280;31429;42.674;23.350;2023-01-15T04:14:59;95172.13;;;4.40;100.00
23164;BME280;31429;42.674;23.350;2023-01-15T04:16:01;95183.19;;;4.25;100.00
23164;BME280;31429;42.674;23.350;2023-01-15T04:17:02;95176.44;;;4.24;100.00
23164;BME280;31429;42.674;23.350;2023-01-15T04:18:03;95176.34;;;4.38;100.00
23164;BME280;31429;42.674;23.350;2023-01-15T04:19:03;95177.88;;;4.58;100.00
23164;BME280;31429;42.674;23.350;2023-01-15T04:20:05;95173.66;;;4.59;100.00
23164;BME280;31429;42.674;23.350;2023-01-15T04:21:06;95173.59;;;4.68;100.00
23164;BME280;31429;42.674;23.350;2023-01-15T04:22:08;95177.72;;;4.77;100.00
23164;BME280;31429;42.674;23.350;2023-01-15T04:23:10;95178.53;;;4.77;100.00
23164;BME280;31429;42.674;23.350;2023-01-15T04:24:10;95178.66;;;4.67;100.00
23164;BME280;31429;42.674;23.350;2023-01-15T04:25:11;95181.31;;;4.50;100.00
23164;BME280;31429;42.674;23.350;2023-01-15T04:26:12;95179.59;;;4.53;100.00
23164;BME280;31429;42.674;23.350;2023-01-15T04:27:12;95178.69;;;4.65;100.00
23164;BME280;31429;42.674;23.350;2023-01-15T04:28:13;95177.75;;;4.72;100.00
23164;BME280;31429;42.674;23.350;2023-01-15T04:29:14;95183.63;;;4.76;100.00
23164;BME280;31429;42.674;23.350;2023-01-15T04:30:15;95179.56;;;4.59;100.00
23164;BME280;31429;42.674;23.350;2023-01-15T04:31:18;95172.81;;;4.58;100.00
23164;BME280;31429;42.674;23.350;2023-01-15T04:32:19;95184.72;;;4.43;100.00
23164;BME280;31429;42.674;23.350;2023-01-15T04:33:19;95180.56;;;4.37;100.00
23164;BME280;31429;42.674;23.350;2023-01-15T04:34:20;95186.50;;;4.33;100.00
23164;BME280;31429;42.674;23.350;2023-01-15T04:35:21;95183.03;;;4.43;100.00
23164;BME280;31429;42.674;23.350;2023-01-15T04:36:21;95182.09;;;4.58;100.00
23164;BME280;31429;42.674;23.350;2023-01-15T04:37:22;95187.00;;;4.78;100.00
23164;BME280;31429;42.674;23.350;2023-01-15T04:38:22;95178.66;;;4.68;100.00
23164;BME280;31429;42.674;23.350;2023-01-15T04:39:23;95183.00;;;4.49;100.00
23164;BME280;31429;42.674;23.350;2023-01-15T04:40:24;95191.31;;;4.63;100.00
23164;BME280;31429;42.674;23.350;2023-01-15T04:41:48;95188.94;;;4.47;100.00
23164;BME280;31429;42.674;23.350;2023-01-15T04:43:07;95193.25;;;4.33;100.00
23164;BME280;31429;42.674;23.350;2023-01-15T04:44:27;95190.75;;;4.27;100.00
23164;BME280;31429;42.674;23.350;2023-01-15T04:45:28;95189.13;;;4.18;100.00
23164;BME280;31429;42.674;23.350;2023-01-15T04:46:31;95180.66;;;4.24;100.00
23164;BME280;31429;42.674;23.350;2023-01-15T04:47:31;95193.31;;;4.21;100.00
23164;BME280;31429;42.674;23.350;2023-01-15T04:48:32;95186.56;;;4.24;100.00
23164;BME280;31429;42.674;23.350;2023-01-15T04:49:33;95191.56;;;4.33;100.00
23164;BME280;31429;42.674;23.350;2023-01-15T04:50:34;95186.41;;;4.44;100.00
23164;BME280;31429;42.674;23.350;2023-01-15T04:51:34;95188.81;;;4.60;100.00
23164;BME280;31429;42.674;23.350;2023-01-15T04:52:36;95189.69;;;4.59;100.00
23164;BME280;31429;42.674;23.350;2023-01-15T04:53:36;95193.06;;;4.58;100.00
23164;BME280;31429;42.674;23.350;2023-01-15T04:54:37;95195.66;;;4.54;100.00
23164;BME280;31429;42.674;23.350;2023-01-15T04:55:38;95191.31;;;4.68;100.00
23164;BME280;31429;42.674;23.350;2023-01-15T04:56:40;95179.47;;;4.69;100.00
23164;BME280;31429;42.674;23.350;2023-01-15T04:57:41;95191.22;;;4.77;100.00
23164;BME280;31429;42.674;23.350;2023-01-15T04:58:42;95187.00;;;4.79;100.00
23164;BME280;31429;42.674;23.350;2023-01-15T04:59:43;95192.88;;;4.80;100.00
23164;BME280;31429;42.674;23.350;2023-01-15T05:00:43;95190.41;;;4.77;100.00
23164;BME280;31429;42.674;23.350;2023-01-15T05:01:45;95193.88;;;4.63;100.00
23164;BME280;31429;42.674;23.350;2023-01-15T05:02:46;95197.31;;;4.56;100.00
23164;BME280;31429;42.674;23.350;2023-01-15T05:03:47;95198.94;;;4.60;100.00
23164;BME280;31429;42.674;23.350;2023-01-15T05:04:47;95200.59;;;4.68;100.00
23164;BME280;31429;42.674;23.350;2023-01-15T05:05:48;95201.56;;;4.48;100.00
23164;BME280;31429;42.674;23.350;2023-01-15T05:06:50;95196.72;;;4.21;100.00
23164;BME280;31429;42.674;23.350;2023-01-15T05:07:50;95204.38;;;4.09;100.00
23164;BME280;31429;42.674;23.350;2023-01-15T05:08:51;95201.91;;;3.95;100.00
23164;BME280;31429;42.674;23.350;2023-01-15T05:09:52;95197.75;;;3.91;100.00
23164;BME280;31429;42.674;23.350;2023-01-15T05:10:54;95200.22;;;3.96;100.00
23164;BME280;31429;42.674;23.350;2023-01-15T05:11:54;95195.97;;;4.09;100.00
23164;BME280;31429;42.674;23.350;2023-01-15T05:12:55;95195.06;;;4.17;100.00
23164;BME280;31429;42.674;23.350;2023-01-15T05:13:56;95193.38;;;4.13;100.00
23164;BME280;31429;42.674;23.350;2023-01-15T05:14:57;95193.38;;;4.15;100.00
23164;BME280;31429;42.674;23.350;2023-01-15T05:16:06;95194.09;;;4.32;100.00
23164;BME280;31429;42.674;23.350;2023-01-15T05:17:08;95201.72;;;4.30;100.00
23164;BME280;31429;42.674;23.350;2023-01-15T05:18:09;95198.38;;;4.24;100.00
23164;BME280;31429;42.674;23.350;2023-01-15T05:19:14;95197.56;;;4.19;100.00
23164;BME280;31429;42.674;23.350;2023-01-15T05:20:15;95201.78;;;4.18;100.00
23164;BME280;31429;42.674;23.350;2023-01-15T05:21:17;95192.56;;;4.10;100.00
23164;BME280;31429;42.674;23.350;2023-01-15T05:22:18;95196.84;;;3.95;100.00
23164;BME280;31429;42.674;23.350;2023-01-15T05:23:19;95200.31;;;3.82;100.00
23164;BME280;31429;42.674;23.350;2023-01-15T05:24:19;95196.97;;;3.73;100.00
23164;BME280;31429;42.674;23.350;2023-01-15T05:25:20;95197.03;;;3.65;100.00
23164;BME280;31429;42.674;23.350;2023-01-15T05:26:21;95195.28;;;3.76;100.00
23164;BME280;31429;42.674;23.350;2023-01-15T05:27:21;95196.13;;;3.72;100.00
23164;BME280;31429;42.674;23.350;2023-01-15T05:28:22;95201.22;;;3.65;100.00
23164;BME280;31429;42.674;23.350;2023-01-15T05:29:23;95201.22;;;3.68;100.00
23164;BME280;31429;42.674;23.350;2023-01-15T05:30:23;95196.94;;;3.79;100.00
23164;BME280;31429;42.674;23.350;2023-01-15T05:31:24;95190.16;;;3.87;100.00
23164;BME280;31429;42.674;23.350;2023-01-15T05:32:26;95198.53;;;3.95;100.00